Time;durP1;ratioP1;P1;durP2;ratioP2;P2;SDS_P1;SDS_P2;PMS_P1;PMS_P2;Temp;Humidity;BMP_temperature;BMP_pressure;BME280_temperature;BME280_humidity;BME280_pressure;Samples;Min_cycle;Max_cycle;Signal;HPM_P1;HPM_P2
2022/07/19 00:02:22;;;;;;;1999.90;999.90;;;;;;;23.38;40.25;95885.38;5028100;28;20030;-70
2022/07/19 00:04:48;;;;;;;1999.90;999.90;;;;;;;23.69;40.25;95947.50;5028310;28;20117;-70
2022/07/19 00:07:13;;;;;;;1999.90;999.90;;;;;;;23.43;40.44;95918.41;5016176;28;20467;-69
2022/07/19 00:09:38;;;;;;;1999.90;999.90;;;;;;;23.36;40.45;95910.19;5024857;28;20037;-70
2022/07/19 00:12:04;;;;;;;1999.90;999.90;;;;;;;23.48;40.64;95936.31;5031409;28;20022;-69
2022/07/19 00:14:29;;;;;;;1999.90;999.90;;;;;;;23.25;40.76;95910.03;5029625;28;20076;-70
2022/07/19 00:16:54;;;;;;;1999.90;999.90;;;;;;;23.06;40.71;95877.59;5031187;28;20040;-70
2022/07/19 00:19:20;;;;;;;1999.90;999.90;;;;;;;23.08;40.75;95886.94;5029623;28;20040;-69
2022/07/19 00:21:45;;;;;;;1999.90;999.90;;;;;;;23.32;40.73;95922.94;5030767;28;20022;-70
2022/07/19 00:24:10;;;;;;;1999.90;999.90;;;;;;;23.01;41.02;95878.69;5030675;28;20118;-69
2022/07/19 00:26:36;;;;;;;1999.90;999.90;;;;;;;23.20;41.08;95909.59;5031906;28;20025;-70
2022/07/19 00:29:02;;;;;;;1999.90;999.90;;;;;;;23.21;40.79;95913.84;5031392;28;20021;-70
2022/07/19 00:31:28;;;;;;;1999.90;999.90;;;;;;;23.04;41.20;95904.31;5029323;28;20394;-69
2022/07/19 00:33:53;;;;;;;1999.90;999.90;;;;;;;23.27;41.05;95936.81;5021899;28;20066;-70
2022/07/19 00:36:19;;;;;;;1999.90;999.90;;;;;;;23.15;41.26;95924.25;5010715;28;20018;-69
2022/07/19 00:38:45;;;;;;;1999.90;999.90;;;;;;;23.01;41.70;95911.25;5018422;28;20026;-69
2022/07/19 00:41:11;;;;;;;1999.90;999.90;;;;;;;22.92;41.63;95901.78;5030358;28;20017;-70
2022/07/19 00:43:40;;;;;;;1999.90;999.90;;;;;;;22.81;41.63;95890.75;5025903;28;20112;-70
2022/07/19 00:46:21;;;;;;;1999.90;999.90;;;;;;;22.76;42.30;95897.25;5028272;28;20117;-70
2022/07/19 00:48:47;;;;;;;1999.90;999.90;;;;;;;22.70;42.26;95893.31;5030190;28;20076;-69
2022/07/19 00:51:14;;;;;;;1999.90;999.90;;;;;;;22.98;42.24;95938.31;5030769;28;20029;-70
2022/07/19 00:53:40;;;;;;;1999.90;999.90;;;;;;;22.86;42.43;95930.34;5030492;28;20022;-69
2022/07/19 00:56:08;;;;;;;1999.90;999.90;;;;;;;22.83;42.72;95937.31;5031260;28;20108;-70
2022/07/19 00:58:35;;;;;;;1999.90;999.90;;;;;;;22.61;42.82;95908.25;5029596;28;20481;-69
2022/07/19 01:01:02;;;;;;;1999.90;999.90;;;;;;;22.15;43.06;95843.97;5030739;28;20048;-69
2022/07/19 01:03:27;;;;;;;1999.90;999.90;;;;;;;22.46;43.35;95907.22;5029390;28;20108;-69
2022/07/19 01:05:53;;;;;;;1999.90;999.90;;;;;;;22.48;43.65;95902.25;5029961;28;20104;-69
2022/07/19 01:08:18;;;;;;;1999.90;999.90;;;;;;;22.46;43.66;95899.09;5030154;28;20022;-69
2022/07/19 01:10:44;;;;;;;1999.90;999.90;;;;;;;22.65;43.11;95926.16;5029872;28;20039;-69
2022/07/19 01:13:12;;;;;;;1999.90;999.90;;;;;;;22.18;43.81;95872.31;5030619;28;20029;-70
2022/07/19 01:15:42;;;;;;;1999.90;999.90;;;;;;;22.50;43.81;95925.13;5029959;28;20473;-69
2022/07/19 01:18:28;;;;;;;1999.90;999.90;;;;;;;22.64;43.65;95932.72;5028271;28;20040;-69
2022/07/19 01:20:53;;;;;;;1999.90;999.90;;;;;;;22.29;43.73;95873.25;5028330;28;20033;-69
2022/07/19 01:23:19;;;;;;;1999.90;999.90;;;;;;;22.55;43.90;95924.81;5028311;28;20371;-70
2022/07/19 01:25:45;;;;;;;1999.90;999.90;;;;;;;22.30;44.00;95889.16;5030045;28;20103;-70
2022/07/19 01:28:10;;;;;;;1999.90;999.90;;;;;;;22.48;44.06;95921.22;5030684;28;20057;-70
2022/07/19 01:30:36;;;;;;;1999.90;999.90;;;;;;;22.34;44.12;95902.00;5027055;28;20025;-69
2022/07/19 01:33:03;;;;;;;1999.90;999.90;;;;;;;22.41;44.00;95921.09;5027898;28;20068;-70
2022/07/19 01:35:29;;;;;;;1999.90;999.90;;;;;;;22.26;44.14;95899.13;5030628;28;20025;-70
2022/07/19 01:37:54;;;;;;;1999.90;999.90;;;;;;;22.40;44.46;95933.06;5030660;28;20021;-70
2022/07/19 01:40:20;;;;;;;1999.90;999.90;;;;;;;21.99;44.62;95878.50;5030023;28;20030;-70
2022/07/19 01:42:47;;;;;;;1999.90;999.90;;;;;;;22.05;44.84;95898.72;5029352;28;20029;-69
2022/07/19 01:45:13;;;;;;;1999.90;999.90;;;;;;;21.31;45.05;95790.59;5018927;28;20033;-70
2022/07/19 01:47:43;;;;;;;1999.90;999.90;;;;;;;22.28;44.85;95940.25;5028037;28;20052;-70
2022/07/19 01:50:10;;;;;;;1999.90;999.90;;;;;;;22.10;44.83;95916.63;5027120;28;20106;-70
2022/07/19 01:52:36;;;;;;;1999.90;999.90;;;;;;;22.18;45.59;95946.25;5029936;28;20025;-70
2022/07/19 01:55:08;;;;;;;1999.90;999.90;;;;;;;22.17;45.24;95933.06;5029735;28;20532;-70
2022/07/19 01:57:33;;;;;;;1999.90;999.90;;;;;;;22.04;45.42;95913.44;5028595;28;20057;-70
2022/07/19 01:59:59;;;;;;;1999.90;999.90;;;;;;;22.09;45.51;95923.19;5029106;28;20068;-70
2022/07/19 02:02:24;;;;;;;1999.90;999.90;;;;;;;21.98;45.66;95917.56;5029216;28;20076;-70
2022/07/19 02:04:49;;;;;;;1999.90;999.90;;;;;;;21.85;46.00;95902.59;5027467;28;20037;-70
2022/07/19 02:07:15;;;;;;;1999.90;999.90;;;;;;;21.76;45.91;95886.59;5028550;28;20470;-70
2022/07/19 02:09:40;;;;;;;1999.90;999.90;;;;;;;21.81;45.99;95894.44;5028429;28;20025;-70
2022/07/19 02:12:06;;;;;;;1999.90;999.90;;;;;;;21.76;45.93;95892.78;5026980;28;20048;-71
2022/07/19 02:14:31;;;;;;;1999.90;999.90;;;;;;;21.60;45.91;95870.44;5028134;28;20454;-70
2022/07/19 02:16:57;;;;;;;1999.90;999.90;;;;;;;21.67;46.37;95886.81;5029733;28;20041;-69
2022/07/19 02:19:22;;;;;;;1999.90;999.90;;;;;;;21.48;46.60;95857.03;5028419;28;20558;-70
2022/07/19 02:21:47;;;;;;;1999.90;999.90;;;;;;;21.37;46.66;95850.63;5028979;28;20029;-70
2022/07/19 02:24:14;;;;;;;1999.90;999.90;;;;;;;21.66;46.89;95904.19;5029354;28;20112;-70
2022/07/19 02:26:39;;;;;;;1999.90;999.90;;;;;;;21.61;46.66;95890.94;5009690;28;20493;-70
2022/07/19 02:29:05;;;;;;;1999.90;999.90;;;;;;;21.51;47.03;95876.06;5008717;28;20030;-70
2022/07/19 02:31:30;;;;;;;1999.90;999.90;;;;;;;21.63;46.94;95888.66;5028067;28;20025;-69
2022/07/19 02:33:55;;;;;;;1999.90;999.90;;;;;;;21.39;47.30;95873.47;5027104;28;20045;-70
2022/07/19 02:36:20;;;;;;;1999.90;999.90;;;;;;;21.39;47.11;95875.38;5028863;28;20033;-70
2022/07/19 02:38:46;;;;;;;1999.90;999.90;;;;;;;21.56;47.06;95902.06;5029166;28;20057;-69
2022/07/19 02:41:13;;;;;;;1999.90;999.90;;;;;;;21.53;47.29;95894.63;5026459;28;20030;-70
2022/07/19 02:43:39;;;;;;;1999.90;999.90;;;;;;;21.56;47.16;95883.09;5027180;28;20370;-69
2022/07/19 02:46:04;;;;;;;1999.90;999.90;;;;;;;21.48;47.35;95887.56;5028049;28;20025;-70
2022/07/19 02:48:29;;;;;;;1999.90;999.90;;;;;;;21.40;47.21;95885.09;5027150;28;20032;-70
2022/07/19 02:50:55;;;;;;;1999.90;999.90;;;;;;;21.28;47.49;95865.09;5027896;28;20040;-70
2022/07/19 02:53:20;;;;;;;1999.90;999.90;;;;;;;21.35;47.40;95885.38;5024064;28;20030;-70
2022/07/19 02:55:45;;;;;;;1999.90;999.90;;;;;;;21.15;47.55;95860.19;5022178;28;20075;-70
2022/07/19 02:58:11;;;;;;;1999.90;999.90;;;;;;;21.22;47.66;95873.84;5027794;28;20053;-70
2022/07/19 03:00:36;;;;;;;1999.90;999.90;;;;;;;21.24;47.80;95877.78;5043058;22;20128;-67
2022/07/19 03:05:46;;;;;;;1999.90;999.90;;;;;;;21.24;47.98;95888.63;5027509;28;20099;-67
2022/07/19 03:08:12;;;;;;;1999.90;999.90;;;;;;;21.22;47.98;95898.22;5029339;28;20026;-67
2022/07/19 03:10:37;;;;;;;1999.90;999.90;;;;;;;21.17;47.99;95893.84;5009946;28;20044;-67
2022/07/19 03:13:03;;;;;;;1999.90;999.90;;;;;;;21.20;47.65;95892.38;5027469;28;20029;-67
2022/07/19 03:15:28;;;;;;;1999.90;999.90;;;;;;;21.13;47.60;95882.16;5028593;28;20052;-67
2022/07/19 03:17:53;;;;;;;1999.90;999.90;;;;;;;21.22;47.81;95896.28;5028071;28;20128;-67
2022/07/19 03:20:19;;;;;;;1999.90;999.90;;;;;;;21.13;47.56;95884.88;5028582;28;20037;-67
2022/07/19 03:22:44;;;;;;;1999.90;999.90;;;;;;;21.17;47.94;95893.06;5028743;28;20458;-67
2022/07/19 03:25:10;;;;;;;1999.90;999.90;;;;;;;21.10;48.27;95885.59;5026034;28;20038;-67
2022/07/19 03:27:35;;;;;;;1999.90;999.90;;;;;;;21.03;48.42;95882.72;5029175;28;20013;-68
2022/07/19 03:30:01;;;;;;;1999.90;999.90;;;;;;;21.06;48.31;95884.72;5010434;28;20505;-67
2022/07/19 03:32:26;;;;;;;1999.90;999.90;;;;;;;21.12;48.38;95883.31;5009321;28;20037;-68
2022/07/19 03:34:51;;;;;;;1999.90;999.90;;;;;;;21.14;48.18;95889.16;5027761;28;20111;-67
2022/07/19 03:37:17;;;;;;;1999.90;999.90;;;;;;;21.09;48.26;95892.16;5029098;28;20390;-67
2022/07/19 03:39:42;;;;;;;1999.90;999.90;;;;;;;21.14;48.55;95888.34;5028361;28;20029;-67
2022/07/19 03:42:07;;;;;;;1999.90;999.90;;;;;;;21.21;48.23;95893.94;5010985;28;20075;-67
2022/07/19 03:44:33;;;;;;;1999.90;999.90;;;;;;;21.18;48.19;95903.53;5025598;28;20029;-67
2022/07/19 03:46:58;;;;;;;1999.90;999.90;;;;;;;21.10;48.30;95890.22;5027958;28;20478;-67
2022/07/19 03:49:23;;;;;;;1999.90;999.90;;;;;;;21.13;48.27;95890.28;5029084;28;20021;-67
2022/07/19 03:51:49;;;;;;;1999.90;999.90;;;;;;;21.07;48.63;95888.22;5032688;28;20034;-67
2022/07/19 03:54:14;;;;;;;1999.90;999.90;;;;;;;21.09;48.67;95889.44;5013755;28;20072;-68
2022/07/19 03:56:39;;;;;;;1999.90;999.90;;;;;;;21.04;48.45;95881.59;5032689;28;20033;-68
2022/07/19 03:59:05;;;;;;;1999.90;999.90;;;;;;;21.13;48.59;95890.28;5030504;28;20033;-67
2022/07/19 04:01:30;;;;;;;1999.90;999.90;;;;;;;21.18;48.52;95881.09;5027812;28;20112;-68
2022/07/19 04:03:55;;;;;;;1999.90;999.90;;;;;;;21.26;48.30;95885.53;5030950;28;20124;-68
2022/07/19 04:06:20;;;;;;;1999.90;999.90;;;;;;;21.40;48.57;95879.69;5024310;28;20052;-67
2022/07/19 04:08:46;;;;;;;1999.90;999.90;;;;;;;21.51;47.75;95886.09;5017018;28;20075;-67
2022/07/19 04:11:11;;;;;;;1999.90;999.90;;;;;;;21.70;47.53;95885.28;5032258;28;20028;-67
2022/07/19 04:13:37;;;;;;;1999.90;999.90;;;;;;;21.88;47.38;95880.22;5029578;28;20478;-67
2022/07/19 04:16:03;;;;;;;1999.90;999.90;;;;;;;22.09;46.83;95890.69;5030822;28;20036;-68
2022/07/19 04:18:28;;;;;;;1999.90;999.90;;;;;;;22.31;46.12;95873.66;5030372;28;20083;-67
2022/07/19 04:20:53;;;;;;;1999.90;999.90;;;;;;;22.60;45.49;95880.34;5032109;28;20029;-68
2022/07/19 04:23:19;;;;;;;1999.90;999.90;;;;;;;22.88;45.04;95884.66;5030750;28;20390;-67
2022/07/19 04:25:44;;;;;;;1999.90;999.90;;;;;;;22.97;44.64;95871.63;5028955;28;20057;-68
2022/07/19 04:28:09;;;;;;;1999.90;999.90;;;;;;;23.34;43.89;95880.69;5031133;28;20056;-68
2022/07/19 04:30:35;;;;;;;1999.90;999.90;;;;;;;23.58;43.06;95875.94;5027417;28;20028;-67
2022/07/19 04:33:00;;;;;;;1999.90;999.90;;;;;;;23.79;42.62;95870.78;5028415;28;20483;-68
2022/07/19 04:35:25;;;;;;;1999.90;999.90;;;;;;;23.92;41.97;95849.59;5029164;28;20029;-68
2022/07/19 04:37:51;;;;;;;1999.90;999.90;;;;;;;24.35;41.31;95877.16;5012227;28;20545;-68
2022/07/19 04:40:16;;;;;;;1999.90;999.90;;;;;;;24.51;40.60;95875.00;5011870;28;20026;-67
2022/07/19 04:42:41;;;;;;;1999.90;999.90;;;;;;;24.50;41.04;95884.31;5030963;28;20793;-68
2022/07/19 04:45:07;;;;;;;1999.90;999.90;;;;;;;24.57;40.49;95872.75;5028569;28;20037;-67
2022/07/19 04:47:32;;;;;;;1999.90;999.90;;;;;;;24.90;40.90;95878.03;5030533;28;20052;-65
2022/07/19 04:49:58;;;;;;;1999.90;999.90;;;;;;;25.17;39.97;95872.38;5030686;28;20022;-67
2022/07/19 04:52:23;;;;;;;1999.90;999.90;;;;;;;25.38;39.34;95875.22;5031064;28;20052;-66
2022/07/19 04:54:48;;;;;;;1999.90;999.90;;;;;;;25.64;39.10;95873.38;5029218;28;20065;-67
2022/07/19 04:57:14;;;;;;;1999.90;999.90;;;;;;;25.71;38.48;95872.66;5029401;28;20116;-67
2022/07/19 04:59:40;;;;;;;1999.90;999.90;;;;;;;25.85;37.49;95875.47;5029920;28;20075;-67
2022/07/19 05:02:06;;;;;;;1999.90;999.90;;;;;;;25.91;36.92;95869.25;5028811;28;20034;-66
2022/07/19 05:04:31;;;;;;;1999.90;999.90;;;;;;;26.06;36.72;95883.69;5028948;28;20033;-70
2022/07/19 05:06:57;;;;;;;1999.90;999.90;;;;;;;26.22;36.66;95882.56;5009862;28;20037;-71
2022/07/19 05:09:24;;;;;;;1999.90;999.90;;;;;;;26.31;36.09;95889.19;5008953;28;20025;-67
2022/07/19 05:11:50;;;;;;;1999.90;999.90;;;;;;;26.35;35.99;95889.97;5033695;28;20028;-67
2022/07/19 05:14:16;;;;;;;1999.90;999.90;;;;;;;26.46;35.80;95892.72;5012727;28;20025;-67
2022/07/19 05:16:41;;;;;;;1999.90;999.90;;;;;;;26.56;35.81;95877.53;5009650;28;20036;-65
2022/07/19 05:19:06;;;;;;;1999.90;999.90;;;;;;;26.65;36.12;95878.72;5029328;28;20038;-68
2022/07/19 05:21:32;;;;;;;1999.90;999.90;;;;;;;26.76;35.46;95872.47;5029917;28;20106;-68
2022/07/19 05:23:57;;;;;;;1999.90;999.90;;;;;;;26.80;34.79;95868.56;5011998;28;20034;-65
2022/07/19 05:26:23;;;;;;;1999.90;999.90;;;;;;;26.78;34.58;95872.88;5030763;28;20501;-69
2022/07/19 05:28:48;;;;;;;1999.90;999.90;;;;;;;26.73;34.34;95865.88;4999938;28;20382;-67
2022/07/19 05:31:13;;;;;;;1999.90;999.90;;;;;;;26.66;33.95;95871.31;5025817;28;20026;-67
2022/07/19 05:33:39;;;;;;;1999.90;999.90;;;;;;;26.72;34.31;95866.22;5012320;28;20393;-66
2022/07/19 05:36:04;;;;;;;1999.90;999.90;;;;;;;26.92;34.07;95881.03;5030031;28;20112;-66
2022/07/19 05:38:34;;;;;;;1999.90;999.90;;;;;;;26.77;33.36;95877.56;5028241;28;20037;-69
2022/07/19 05:40:59;;;;;;;1999.90;999.90;;;;;;;26.93;33.56;95867.00;5012825;28;20032;-66
2022/07/19 05:43:25;;;;;;;1999.90;999.90;;;;;;;27.09;33.77;95883.00;5030874;28;20033;-68
2022/07/19 05:45:50;;;;;;;1999.90;999.90;;;;;;;27.17;34.16;95861.91;5030318;28;20029;-69
2022/07/19 05:48:15;;;;;;;1999.90;999.90;;;;;;;27.31;32.94;95869.31;5013114;28;20026;-68
2022/07/19 05:50:40;;;;;;;1999.90;999.90;;;;;;;27.13;32.49;95850.25;5011856;28;20089;-70
2022/07/19 05:53:06;;;;;;;1999.90;999.90;;;;;;;27.30;32.08;95875.94;5030147;28;20034;-68
2022/07/19 05:55:31;;;;;;;1999.90;999.90;;;;;;;27.12;32.28;95852.16;5013007;28;20055;-70
2022/07/19 05:57:57;;;;;;;1999.90;999.90;;;;;;;26.98;32.86;95863.09;5013290;28;20026;-66
2022/07/19 06:00:22;;;;;;;1999.90;999.90;;;;;;;27.04;32.47;95880.66;5013240;28;20025;-68
2022/07/19 06:02:47;;;;;;;1999.90;999.90;;;;;;;27.00;32.58;95876.38;5030624;28;20401;-68
2022/07/19 06:05:13;;;;;;;1999.90;999.90;;;;;;;26.81;32.89;95872.84;5029685;28;20394;-70
2022/07/19 06:07:38;;;;;;;1999.90;999.90;;;;;;;26.66;33.03;95865.84;5012880;28;20032;-70
2022/07/19 06:10:04;;;;;;;1999.90;999.90;;;;;;;26.93;32.80;95868.97;5030131;28;20026;-70
2022/07/19 06:12:29;;;;;;;1999.90;999.90;;;;;;;27.06;32.52;95861.13;5029424;28;20022;-69
2022/07/19 06:14:55;;;;;;;1999.90;999.90;;;;;;;27.13;32.31;95855.69;5028680;28;20045;-70
2022/07/19 06:17:21;;;;;;;1999.90;999.90;;;;;;;27.35;32.63;95865.38;5029261;28;20029;-70
2022/07/19 06:19:46;;;;;;;1999.90;999.90;;;;;;;27.36;32.60;95847.81;5027763;28;20048;-70
2022/07/19 06:22:11;;;;;;;1999.90;999.90;;;;;;;27.63;32.26;95871.91;5029999;28;20359;-71
2022/07/19 06:24:37;;;;;;;1999.90;999.90;;;;;;;27.72;31.69;95875.03;5030126;28;20022;-69
2022/07/19 06:27:02;;;;;;;1999.90;999.90;;;;;;;27.67;31.64;95867.22;5029689;28;20036;-69
2022/07/19 06:29:27;;;;;;;1999.90;999.90;;;;;;;27.93;31.81;95874.94;5028427;28;20541;-69
2022/07/19 06:31:53;;;;;;;1999.90;999.90;;;;;;;27.48;31.97;95866.50;5010943;28;20033;-69
2022/07/19 06:34:18;;;;;;;1999.90;999.90;;;;;;;27.87;31.45;95868.31;5028957;28;20080;-70
2022/07/19 06:36:43;;;;;;;1999.90;999.90;;;;;;;27.98;31.48;95860.06;5029639;28;20028;-69
2022/07/19 06:39:08;;;;;;;1999.90;999.90;;;;;;;28.07;31.21;95870.56;5027381;28;20541;-70
2022/07/19 06:41:34;;;;;;;1999.90;999.90;;;;;;;27.97;31.27;95858.50;5010282;28;20022;-70
2022/07/19 06:43:59;;;;;;;1999.90;999.90;;;;;;;28.16;30.97;95877.16;5009631;28;20065;-70
2022/07/19 06:46:24;;;;;;;1999.90;999.90;;;;;;;28.21;30.74;95871.28;5004388;28;20032;-70
2022/07/19 06:48:50;;;;;;;1999.90;999.90;;;;;;;28.13;31.10;95855.28;5029841;28;20079;-70
2022/07/19 06:51:15;;;;;;;1999.90;999.90;;;;;;;28.22;31.14;95848.19;5010233;28;20382;-70
2022/07/19 06:53:40;;;;;;;1999.90;999.90;;;;;;;28.28;30.91;95854.03;5029388;28;20022;-70
2022/07/19 06:56:06;;;;;;;1999.90;999.90;;;;;;;28.44;31.14;95876.22;5029803;28;20102;-70
2022/07/19 06:58:32;;;;;;;1999.90;999.90;;;;;;;28.45;30.49;95858.59;5027186;28;20025;-70
2022/07/19 07:00:57;;;;;;;1999.90;999.90;;;;;;;28.63;30.80;95874.91;5027273;28;20108;-70
2022/07/19 07:03:22;;;;;;;1999.90;999.90;;;;;;;28.69;30.58;95858.81;5029589;28;20489;-70
2022/07/19 07:05:48;;;;;;;1999.90;999.90;;;;;;;28.73;30.72;95856.84;5007342;28;20455;-70
2022/07/19 07:08:13;;;;;;;1999.90;999.90;;;;;;;28.81;30.27;95866.53;5010129;28;20026;-70
2022/07/19 07:10:39;;;;;;;1999.90;999.90;;;;;;;28.08;30.99;95847.50;5009819;28;20034;-70
2022/07/19 07:13:05;;;;;;;1999.90;999.90;;;;;;;28.50;30.99;95871.84;5009475;28;20069;-70
2022/07/19 07:15:31;;;;;;;1999.90;999.90;;;;;;;28.66;30.89;95870.56;5015656;28;20049;-70
2022/07/19 07:17:57;;;;;;;1999.90;999.90;;;;;;;27.91;31.46;95852.69;5029563;28;20032;-71
2022/07/19 07:20:22;;;;;;;1999.90;999.90;;;;;;;28.28;30.97;95864.19;5028792;28;20022;-70
2022/07/19 07:22:47;;;;;;;1999.90;999.90;;;;;;;28.09;31.45;95874.44;5031091;28;20108;-71
2022/07/19 07:25:13;;;;;;;1999.90;999.90;;;;;;;28.45;30.58;95855.88;5015924;28;20059;-70
2022/07/19 07:27:38;;;;;;;1999.90;999.90;;;;;;;28.74;30.07;95850.19;5014867;28;20021;-71
2022/07/19 07:30:04;;;;;;;1999.90;999.90;;;;;;;28.83;29.89;95861.44;5032499;28;21649;-71
2022/07/19 07:32:29;;;;;;;1999.90;999.90;;;;;;;28.74;29.97;95855.66;5033089;28;20034;-71
2022/07/19 07:34:55;;;;;;;1999.90;999.90;;;;;;;29.01;29.97;95864.03;5032705;28;20029;-69
2022/07/19 07:37:20;;;;;;;1999.90;999.90;;;;;;;29.28;29.58;95855.94;5033335;28;20033;-71
2022/07/19 07:39:46;;;;;;;1999.90;999.90;;;;;;;29.38;29.09;95865.22;5033085;28;20029;-69
2022/07/19 07:42:12;;;;;;;1999.90;999.90;;;;;;;28.99;28.71;95847.25;5031222;28;20055;-69
2022/07/19 07:44:37;;;;;;;1999.90;999.90;;;;;;;29.17;28.95;95860.75;5032190;28;20030;-69
2022/07/19 07:47:03;;;;;;;1999.90;999.90;;;;;;;29.34;29.30;95846.09;5010051;28;20421;-69
2022/07/19 07:49:30;;;;;;;1999.90;999.90;;;;;;;29.47;29.53;95849.84;5013406;28;20151;-69
2022/07/19 07:51:55;;;;;;;1999.90;999.90;;;;;;;29.46;29.26;95855.72;5014490;28;20022;-70
2022/07/19 07:54:20;;;;;;;1999.90;999.90;;;;;;;29.66;28.55;95864.91;5032596;28;20385;-68
2022/07/19 07:56:46;;;;;;;1999.90;999.90;;;;;;;29.58;28.75;95848.97;5014039;28;20033;-71
2022/07/19 07:59:11;;;;;;;1999.90;999.90;;;;;;;29.85;28.56;95858.03;5029486;28;20104;-71
2022/07/19 08:01:37;;;;;;;1999.90;999.90;;;;;;;29.89;28.12;95855.22;5014532;28;20025;-69
2022/07/19 08:04:03;;;;;;;1999.90;999.90;;;;;;;30.11;27.83;95858.47;5014335;28;20033;-69
2022/07/19 08:06:29;;;;;;;1999.90;999.90;;;;;;;30.10;27.62;95848.66;5032183;28;20038;-70
2022/07/19 08:08:54;;;;;;;1999.90;999.90;;;;;;;29.67;27.42;95846.50;5015453;28;20025;-65
2022/07/19 08:11:20;;;;;;;1999.90;999.90;;;;;;;29.78;26.59;95839.69;5012640;28;20573;-65
2022/07/19 08:13:46;;;;;;;1999.90;999.90;;;;;;;30.15;26.41;95838.06;5012192;28;20030;-66
2022/07/19 08:16:11;;;;;;;1999.90;999.90;;;;;;;29.97;26.37;95846.50;5031671;28;20025;-66
2022/07/19 08:18:36;;;;;;;1999.90;999.90;;;;;;;29.99;26.65;95846.88;5014608;28;20462;-67
2022/07/19 08:21:02;;;;;;;1999.90;999.90;;;;;;;29.60;26.99;95838.38;5030443;28;20039;-66
2022/07/19 08:23:27;;;;;;;1999.90;999.90;;;;;;;30.12;26.17;95827.91;5014222;28;20387;-66
2022/07/19 08:25:52;;;;;;;1999.90;999.90;;;;;;;30.19;26.41;95837.97;5032295;28;20060;-66
2022/07/19 08:28:18;;;;;;;1999.90;999.90;;;;;;;30.27;25.96;95831.22;5031291;28;20036;-66
2022/07/19 08:30:43;;;;;;;1999.90;999.90;;;;;;;29.86;26.10;95831.38;5031103;28;20036;-66
2022/07/19 08:33:09;;;;;;;1999.90;999.90;;;;;;;29.85;26.32;95840.81;5012612;28;20469;-66
2022/07/19 08:35:35;;;;;;;1999.90;999.90;;;;;;;30.58;25.35;95829.16;5030846;28;20026;-67
2022/07/19 08:38:01;;;;;;;1999.90;999.90;;;;;;;29.94;25.58;95824.59;5032188;28;20500;-66
2022/07/19 08:40:26;;;;;;;1999.90;999.90;;;;;;;30.15;25.24;95845.47;5031876;28;20030;-66
2022/07/19 08:42:53;;;;;;;1999.90;999.90;;;;;;;30.31;25.11;95842.13;5031202;28;20026;-66
2022/07/19 08:45:22;;;;;;;1999.90;999.90;;;;;;;30.07;24.29;95822.84;5012226;28;20053;-65
2022/07/19 08:47:48;;;;;;;1999.90;999.90;;;;;;;30.47;24.14;95834.81;5012957;28;20112;-65
2022/07/19 08:50:13;;;;;;;1999.90;999.90;;;;;;;30.00;23.61;95821.00;5013853;28;20442;-66
2022/07/19 08:52:39;;;;;;;1999.90;999.90;;;;;;;30.58;22.74;95833.88;5012535;28;20108;-67
2022/07/19 08:55:05;;;;;;;1999.90;999.90;;;;;;;31.00;22.25;95827.66;5013580;28;20033;-67
2022/07/19 09:00:15;;;;;;;1999.90;999.90;;;;;;;31.27;22.58;95815.78;5030375;28;20045;-67
2022/07/19 09:02:55;;;;;;;1999.90;999.90;;;;;;;31.47;22.41;95818.53;5013391;28;20025;-65
2022/07/19 09:05:21;;;;;;;1999.90;999.90;;;;;;;31.25;22.45;95823.66;5025298;28;20075;-66
2022/07/19 09:08:05;;;;;;;1999.90;999.90;;;;;;;31.47;21.72;95821.28;5011496;28;20112;-66
2022/07/19 09:10:32;;;;;;;1999.90;999.90;;;;;;;31.39;22.12;95812.44;5031266;28;20040;-66
2022/07/19 09:13:00;;;;;;;1999.90;999.90;;;;;;;31.35;22.06;95808.97;5030814;28;20029;-66
2022/07/19 09:15:45;;;;;;;1999.90;999.90;;;;;;;31.42;21.92;95819.81;5030421;28;20045;-66
2022/07/19 09:18:22;;;;;;;1999.90;999.90;;;;;;;31.36;21.51;95810.50;5012585;28;20045;-65
2022/07/19 09:20:53;;;;;;;1999.90;999.90;;;;;;;31.44;21.09;95816.66;5030239;28;20053;-66
2022/07/19 09:23:19;;;;;;;1999.90;999.90;;;;;;;31.66;20.99;95817.00;5030747;28;20116;-66
2022/07/19 09:25:50;;;;;;;1999.90;999.90;;;;;;;32.05;19.99;95808.69;5013456;28;20029;-68
2022/07/19 09:28:18;;;;;;;1999.90;999.90;;;;;;;31.58;20.66;95808.09;5013691;28;20026;-66
2022/07/19 09:30:46;;;;;;;1999.90;999.90;;;;;;;31.30;21.19;95802.00;5012468;28;20034;-67
2022/07/19 09:33:17;;;;;;;1999.90;999.90;;;;;;;31.04;21.74;95811.88;5011983;28;20040;-68
2022/07/19 09:35:49;;;;;;;1999.90;999.90;;;;;;;30.77;21.88;95801.00;5031221;28;20437;-67
2022/07/19 09:38:17;;;;;;;1999.90;999.90;;;;;;;30.86;21.59;95811.41;5012735;28;20057;-67
2022/07/19 09:40:42;;;;;;;1999.90;999.90;;;;;;;30.64;22.12;95804.72;5030851;28;20032;-67
2022/07/19 09:43:08;;;;;;;1999.90;999.90;;;;;;;30.32;21.25;95808.00;5028616;28;20034;-67
2022/07/19 09:45:33;;;;;;;1999.90;999.90;;;;;;;30.47;21.85;95801.88;5027696;28;20079;-67
2022/07/19 09:48:00;;;;;;;1999.90;999.90;;;;;;;30.76;20.74;95790.41;5013007;28;20478;-69
2022/07/19 09:50:25;;;;;;;1999.90;999.90;;;;;;;31.09;21.94;95801.59;5030600;28;20116;-68
2022/07/19 09:52:52;;;;;;;1999.90;999.90;;;;;;;31.00;21.53;95804.91;5029133;28;20184;-66
2022/07/19 09:55:18;;;;;;;1999.90;999.90;;;;;;;31.05;21.76;95798.91;5030257;28;20044;-66
2022/07/19 09:57:47;;;;;;;1999.90;999.90;;;;;;;31.32;20.88;95798.81;5011883;28;20033;-66
2022/07/19 10:00:14;;;;;;;1999.90;999.90;;;;;;;31.40;21.69;95802.19;5011808;28;20022;-66
2022/07/19 10:02:47;;;;;;;1999.90;999.90;;;;;;;31.39;21.46;95792.41;5012377;28;20026;-66
2022/07/19 10:05:13;;;;;;;1999.90;999.90;;;;;;;31.37;21.57;95781.81;5012683;28;20022;-66
2022/07/19 10:07:39;;;;;;;1999.90;999.90;;;;;;;31.73;21.33;95781.84;5029629;28;20496;-66
2022/07/19 10:10:11;;;;;;;1999.90;999.90;;;;;;;31.27;21.81;95777.31;5030325;28;20025;-66
2022/07/19 10:12:39;;;;;;;1999.90;999.90;;;;;;;31.54;21.66;95775.19;5027778;28;20026;-66
2022/07/19 10:15:06;;;;;;;1999.90;999.90;;;;;;;31.16;21.56;95777.50;5016845;28;20079;-67
2022/07/19 10:17:36;;;;;;;1999.90;999.90;;;;;;;31.31;21.20;95767.81;5010536;28;20398;-66
2022/07/19 10:20:05;;;;;;;1999.90;999.90;;;;;;;31.62;21.65;95778.56;5016961;28;20108;-66
2022/07/19 10:22:31;;;;;;;1999.90;999.90;;;;;;;31.75;21.41;95770.44;5024779;28;20124;-68
2022/07/19 10:24:59;;;;;;;1999.90;999.90;;;;;;;31.57;21.26;95774.31;5012133;28;20116;-66
2022/07/19 10:27:24;;;;;;;1999.90;999.90;;;;;;;31.62;20.75;95770.31;5012458;28;20022;-66
2022/07/19 10:29:51;;;;;;;1999.90;999.90;;;;;;;31.61;21.52;95770.75;5011218;28;20038;-66
2022/07/19 10:32:16;;;;;;;1999.90;999.90;;;;;;;31.75;21.03;95770.44;5029638;28;20030;-66
2022/07/19 10:34:47;;;;;;;1999.90;999.90;;;;;;;31.77;21.61;95779.03;5030064;28;20136;-67
2022/07/19 10:37:12;;;;;;;1999.90;999.90;;;;;;;31.89;21.59;95775.66;5010253;28;20033;-66
2022/07/19 10:39:39;;;;;;;1999.90;999.90;;;;;;;31.55;20.59;95764.97;5011977;28;20026;-65
2022/07/19 10:42:22;;;;;;;1999.90;999.90;;;;;;;32.13;19.89;95770.75;5011578;28;20199;-65
2022/07/19 10:44:59;;;;;;;1999.90;999.90;;;;;;;32.62;19.83;95761.75;5011266;28;20057;-65
2022/07/19 10:47:40;;;;;;;1999.90;999.90;;;;;;;32.78;19.56;95769.97;5029770;28;20109;-67
2022/07/19 10:50:20;;;;;;;1999.90;999.90;;;;;;;32.59;19.80;95774.38;5011302;28;20399;-65
2022/07/19 10:52:46;;;;;;;1999.90;999.90;;;;;;;32.89;19.10;95756.72;5027713;28;20021;-67
2022/07/19 10:57:44;;;;;;;1999.90;999.90;;;;;;;33.15;18.02;95765.06;5027553;28;20537;-67
2022/07/19 11:00:30;;;;;;;1999.90;999.90;;;;;;;33.07;18.22;95754.25;5010657;28;20393;-65